Time;durP1;ratioP1;P1;durP2;ratioP2;P2;SDS_P1;SDS_P2;PMS_P1;PMS_P2;Temp;Humidity;BMP_temperature;BMP_pressure;BME280_temperature;BME280_humidity;BME280_pressure;Samples;Min_cycle;Max_cycle;Signal;HPM_P1;HPM_P2
2021/04/12 00:00:09;;;;;;;4.95;3.08;;;;;;;-1.02;84.91;102124.91;1035940;28;20046;-77
2021/04/12 00:00:47;;;;;;;4.03;3.10;;;;;;;-1.10;85.10;102125.16;1035866;28;20057;-77
2021/04/12 00:01:25;;;;;;;4.65;3.42;;;;;;;-1.08;85.34;102115.13;1040117;28;20429;-77
2021/04/12 00:02:08;;;;;;;4.53;3.15;;;;;;;-1.07;85.24;102124.56;1040020;28;20065;-77
2021/04/12 00:02:47;;;;;;;6.55;3.50;;;;;;;-1.02;85.47;102132.50;1035679;28;20175;-78
2021/04/12 00:03:28;;;;;;;4.88;3.25;;;;;;;-0.98;85.82;102126.94;1033375;28;20066;-77
2021/04/12 00:04:04;;;;;;;7.40;3.50;;;;;;;-1.04;84.80;102127.31;1035755;28;20046;-77
2021/04/12 00:04:46;;;;;;;7.60;4.30;;;;;;;-1.03;85.06;102128.22;1031667;28;20050;-77
2021/04/12 00:05:38;;;;;;;4.85;3.67;;;;;;;-1.00;85.21;102123.41;1031921;28;20053;-77
2021/04/12 00:06:16;;;;;;;6.55;3.70;;;;;;;-1.03;84.85;102129.09;1032349;28;20054;-77
2021/04/12 00:06:58;;;;;;;4.05;3.60;;;;;;;-1.03;85.53;102129.09;1035745;28;20506;-77
2021/04/12 00:07:44;;;;;;;6.43;3.50;;;;;;;-1.09;85.58;102132.00;1034635;28;20065;-77
2021/04/12 00:08:32;;;;;;;6.53;3.45;;;;;;;-1.02;85.48;102128.34;1039962;28;20042;-77
2021/04/12 00:09:18;;;;;;;5.72;3.67;;;;;;;-1.10;85.50;102136.97;1037102;28;20424;-77
2021/04/12 00:10:06;;;;;;;5.32;3.35;;;;;;;-1.15;86.13;102135.69;1035836;28;20050;-77
2021/04/12 00:10:51;;;;;;;6.55;4.07;;;;;;;-1.04;86.26;102132.41;1035868;28;20475;-77
2021/04/12 00:11:30;;;;;;;5.55;4.20;;;;;;;-1.08;85.58;102137.97;1035867;28;20052;-78
2021/04/12 00:12:15;;;;;;;4.88;4.07;;;;;;;-1.12;85.52;102129.25;1036052;28;20048;-77
2021/04/12 00:12:53;;;;;;;10.73;3.50;;;;;;;-1.14;85.70;102128.22;1040053;28;20457;-77
2021/04/12 00:13:36;;;;;;;4.38;3.40;;;;;;;-1.14;85.34;102133.28;1039233;28;20056;-77
2021/04/12 00:14:24;;;;;;;4.68;3.25;;;;;;;-1.09;85.40;102137.09;1035862;28;20050;-78
2021/04/12 00:14:59;;;;;;;6.03;3.63;;;;;;;-1.10;85.69;102127.72;1035912;28;20050;-77
2021/04/12 00:15:39;;;;;;;5.45;3.80;;;;;;;-1.13;85.12;102131.66;1037773;28;20052;-77
2021/04/12 00:16:24;;;;;;;6.47;3.65;;;;;;;-1.20;85.22;102142.94;1035785;28;20061;-77
2021/04/12 00:17:15;;;;;;;8.77;3.83;;;;;;;-1.16;85.85;102133.94;1035757;28;20461;-77
2021/04/12 00:17:49;;;;;;;6.55;4.28;;;;;;;-1.16;85.95;102133.94;1036319;28;20101;-77
2021/04/12 00:18:43;;;;;;;7.15;3.35;;;;;;;-1.22;85.40;102133.44;1035739;28;20046;-77
2021/04/12 00:19:27;;;;;;;6.70;3.80;;;;;;;-1.15;85.56;102143.31;1031661;28;20046;-77
2021/04/12 00:20:01;;;;;;;4.13;3.72;;;;;;;-1.15;85.92;102135.69;1032781;28;20057;-77
2021/04/12 00:20:43;;;;;;;7.38;3.83;;;;;;;-1.16;85.45;102151.72;1039062;28;20071;-77
2021/04/12 00:21:32;;;;;;;6.63;3.72;;;;;;;-1.17;85.52;102139.78;1040161;28;20132;-77
2021/04/12 00:22:12;;;;;;;5.63;3.40;;;;;;;-1.20;85.35;102142.06;1039919;28;20083;-77
2021/04/12 00:23:08;;;;;;;5.53;3.70;;;;;;;-1.22;85.60;102133.44;1039907;28;20052;-77
2021/04/12 00:23:47;;;;;;;8.55;4.20;;;;;;;-1.20;85.51;102142.06;1039019;28;20050;-77
2021/04/12 00:24:53;;;;;;;8.73;3.92;;;;;;;-1.20;85.27;102136.97;1039838;28;20429;-77
2021/04/12 00:25:37;;;;;;;4.60;3.55;;;;;;;-1.25;85.79;102139.13;1035539;28;20049;-77
2021/04/12 00:26:16;;;;;;;4.53;3.35;;;;;;;-1.22;85.36;102141.94;1034417;28;20046;-78
2021/04/12 00:26:58;;;;;;;7.43;4.15;;;;;;;-1.17;85.65;102142.31;1031717;28;20050;-76
2021/04/12 00:27:32;;;;;;;7.43;4.28;;;;;;;-1.16;85.60;102147.50;1031861;28;20188;-77
2021/04/12 00:28:14;;;;;;;4.53;3.58;;;;;;;-1.16;85.90;102141.56;1031678;28;20054;-77
2021/04/12 00:28:52;;;;;;;4.32;3.90;;;;;;;-1.15;85.68;102133.16;1035303;28;20053;-77
2021/04/12 00:29:47;;;;;;;6.22;4.25;;;;;;;-1.20;85.01;102144.59;1035859;28;20541;-77
2021/04/12 00:30:26;;;;;;;7.43;3.55;;;;;;;-1.19;85.80;102143.81;1035913;28;20052;-77
2021/04/12 00:31:32;;;;;;;7.13;4.10;;;;;;;-1.18;85.68;102140.53;1035899;28;20137;-77
2021/04/12 00:32:22;;;;;;;6.15;3.60;;;;;;;-1.17;85.84;102153.34;1031571;28;20282;-77
2021/04/12 00:32:57;;;;;;;3.78;3.30;;;;;;;-1.17;85.64;102145.75;1035052;28;20053;-77
2021/04/12 00:33:42;;;;;;;4.45;3.63;;;;;;;-1.31;85.40;102125.03;1036072;28;20081;-77
2021/04/12 00:34:22;;;;;;;4.50;3.35;;;;;;;-1.23;85.79;102141.81;1035917;28;20415;-76
2021/04/12 00:35:03;;;;;;;5.57;3.45;;;;;;;-1.20;85.94;102149.66;1036680;28;20053;-76
2021/04/12 00:35:55;;;;;;;6.38;3.70;;;;;;;-1.16;85.89;102146.63;1040813;28;20050;-76
2021/04/12 00:36:39;;;;;;;5.55;3.13;;;;;;;-1.19;85.59;102152.34;1036545;28;20061;-76
2021/04/12 00:37:39;;;;;;;4.35;3.17;;;;;;;-1.28;85.58;102145.63;1036765;28;20057;-76
2021/04/12 00:38:40;;;;;;;4.65;3.30;;;;;;;-1.33;85.59;102138.50;1021437;28;20135;-76
2021/04/12 00:39:47;;;;;;;7.25;4.10;;;;;;;-1.35;85.85;102141.69;1032572;28;20058;-76
2021/04/12 00:40:44;;;;;;;8.07;3.60;;;;;;;-1.40;85.98;102146.38;1033773;28;20060;-76
2021/04/12 00:41:43;;;;;;;3.83;2.97;;;;;;;-1.35;86.47;102142.56;1037729;28;20046;-77
2021/04/12 00:42:27;;;;;;;4.50;2.90;;;;;;;-1.37;86.56;102149.16;1033235;28;20050;-77
2021/04/12 00:43:32;;;;;;;5.40;3.58;;;;;;;-1.39;86.28;102150.69;1032051;28;20059;-77
2021/04/12 00:44:12;;;;;;;4.68;3.00;;;;;;;-1.40;86.28;102143.84;1034708;28;20038;-77
2021/04/12 00:45:07;;;;;;;4.50;3.67;;;;;;;-1.44;86.27;102151.94;1035547;28;20593;-77
2021/04/12 00:45:56;;;;;;;5.68;3.65;;;;;;;-1.40;86.45;102156.53;1037195;28;20077;-77
2021/04/12 00:46:53;;;;;;;4.22;2.97;;;;;;;-1.40;86.56;102148.91;1040295;28;20049;-77
2021/04/12 00:47:43;;;;;;;5.05;3.70;;;;;;;-1.48;86.02;102149.00;1036628;28;20184;-76
2021/04/12 00:48:44;;;;;;;4.65;3.15;;;;;;;-1.45;86.13;102151.81;1034439;28;20050;-76
2021/04/12 00:49:15;;;;;;;;;;;;;;;-1.50;86.23;102150.53;1039848;28;20501;-77
2021/04/12 00:50:16;;;;;;;4.10;3.10;;;;;;;-1.49;86.32;102154.84;1040721;28;19921;-76
2021/04/12 00:51:09;;;;;;;4.53;2.95;;;;;;;-1.51;86.21;102154.72;1040491;28;20049;-76
2021/04/12 00:51:59;;;;;;;8.73;3.25;;;;;;;-1.46;86.92;102158.53;1040645;28;20080;-77
2021/04/12 00:52:45;;;;;;;5.40;3.53;;;;;;;-1.43;86.51;102155.38;1040383;28;20045;-77
2021/04/12 00:53:31;;;;;;;6.28;3.10;;;;;;;-1.47;85.99;102160.97;1036529;28;20048;-77
2021/04/12 00:54:12;;;;;;;4.47;3.80;;;;;;;-1.46;86.96;102161.09;1036813;28;20045;-77
2021/04/12 00:55:20;;;;;;;4.25;3.53;;;;;;;-1.46;86.19;102156.00;1036695;28;20069;-77
2021/04/12 00:56:02;;;;;;;5.88;4.22;;;;;;;-1.54;86.23;102162.06;1036538;28;20050;-76
2021/04/12 00:56:51;;;;;;;6.40;3.95;;;;;;;-1.55;86.79;102151.78;1039516;28;20276;-77
2021/04/12 00:57:53;;;;;;;3.72;3.10;;;;;;;-1.61;86.70;102150.50;1040469;28;20053;-77
2021/04/12 00:58:43;;;;;;;10.35;3.83;;;;;;;-1.49;86.78;102154.84;1019150;28;20547;-77
2021/04/12 00:59:35;;;;;;;8.32;4.35;;;;;;;-1.44;87.23;102157.00;1031171;28;20540;-77
2021/04/12 01:00:12;;;;;;;7.13;3.65;;;;;;;-1.41;86.73;102157.28;1034612;28;20533;-77
2021/04/12 01:01:12;;;;;;;8.25;4.07;;;;;;;-1.46;86.43;102153.47;1033330;28;20445;-77
2021/04/12 01:02:10;;;;;;;11.95;5.50;;;;;;;-1.47;86.61;102153.34;1036525;28;20060;-77
2021/04/12 01:02:56;;;;;;;6.57;4.20;;;;;;;-1.29;87.53;102159.97;1019743;29;20456;-77
2021/04/12 01:03:49;;;;;;;5.32;4.10;;;;;;;-1.34;86.81;102159.56;1019390;28;20200;-77
2021/04/12 01:04:38;;;;;;;3.92;3.47;;;;;;;-1.40;85.89;102160.72;1034966;28;20054;-77
2021/04/12 01:05:46;;;;;;;4.03;3.53;;;;;;;-1.33;86.37;102168.94;1038187;28;20181;-77
2021/04/12 01:06:39;;;;;;;3.80;3.35;;;;;;;-1.36;86.49;102153.50;1032536;28;20050;-77
2021/04/12 01:07:29;;;;;;;6.60;4.07;;;;;;;-1.36;86.90;102163.63;1036688;28;20478;-77
2021/04/12 01:08:27;;;;;;;8.68;4.43;;;;;;;-1.43;86.80;102163.84;1038313;28;20046;-77
2021/04/12 01:09:14;;;;;;;6.45;4.40;;;;;;;-1.47;87.06;102160.97;1038509;28;20126;-77
2021/04/12 01:10:16;;;;;;;8.50;3.78;;;;;;;-1.43;86.98;102170.59;1037417;28;20057;-77
2021/04/12 01:11:06;;;;;;;7.53;3.95;;;;;;;-1.41;86.97;102166.56;1036894;28;20398;-77
2021/04/12 01:12:08;;;;;;;5.65;3.65;;;;;;;-1.40;87.03;102161.59;1036949;28;20444;-77
2021/04/12 01:13:03;;;;;;;5.10;3.53;;;;;;;-1.46;86.45;102163.63;1036502;28;20050;-77
2021/04/12 01:13:52;;;;;;;12.73;4.03;;;;;;;-1.46;86.39;102166.16;1036820;28;20078;-77
2021/04/12 01:14:52;;;;;;;5.95;3.38;;;;;;;-1.53;86.66;102166.41;1038784;28;20053;-77
2021/04/12 01:15:42;;;;;;;5.55;3.80;;;;;;;-1.47;86.65;102161.84;1036464;28;20056;-76
2021/04/12 01:16:33;;;;;;;5.13;3.78;;;;;;;-1.40;86.97;102165.78;1037394;28;20057;-76
2021/04/12 01:17:13;;;;;;;10.95;4.35;;;;;;;-1.39;86.90;102167.56;1038287;28;20049;-77
2021/04/12 01:18:08;;;;;;;8.18;4.55;;;;;;;-1.38;87.13;102161.72;1036494;28;20060;-77
2021/04/12 01:19:13;;;;;;;8.02;4.25;;;;;;;-1.30;87.08;102168.34;1039293;28;20081;-77
2021/04/12 01:20:08;;;;;;;8.43;3.58;;;;;;;-1.38;86.90;102166.78;1040607;28;20050;-76
2021/04/12 01:21:12;;;;;;;5.70;4.28;;;;;;;-1.33;87.03;102168.06;1040744;28;20521;-77
2021/04/12 01:22:21;;;;;;;6.85;4.75;;;;;;;-1.27;87.47;102167.69;1044580;28;20467;-77
2021/04/12 01:23:20;;;;;;;5.75;3.92;;;;;;;-1.26;87.22;102164.38;1044607;28;20047;-77
2021/04/12 01:24:13;;;;;;;7.68;4.47;;;;;;;-1.24;87.38;102176.47;1040886;28;20046;-77
2021/04/12 01:25:31;;;;;;;6.72;4.30;;;;;;;-1.27;87.05;102172.75;1036447;28;20054;-77
2021/04/12 01:26:21;;;;;;;5.50;4.18;;;;;;;-1.28;86.91;102173.53;1024118;29;20143;-77
2021/04/12 01:27:04;;;;;;;7.53;4.75;;;;;;;-1.28;87.21;102176.97;1027253;28;20403;-76
2021/04/12 01:28:04;;;;;;;7.35;4.50;;;;;;;-1.26;86.98;102172.88;1028030;28;20424;-77
2021/04/12 01:28:59;;;;;;;8.90;4.00;;;;;;;-1.29;87.02;102170.09;1033738;28;20042;-76
2021/04/12 01:30:04;;;;;;;8.52;4.97;;;;;;;-1.31;87.08;102176.69;1036441;28;20076;-76
2021/04/12 01:31:05;;;;;;;7.35;4.30;;;;;;;-1.29;87.23;102176.84;1038080;28;20046;-77
2021/04/12 01:31:51;;;;;;;;;;;;;;;-1.26;86.94;102175.41;1040965;28;20424;-77
2021/04/12 01:32:43;;;;;;;8.90;5.93;;;;;;;-1.27;87.50;102171.13;1040811;28;19928;-77
2021/04/12 01:33:20;;;;;;;12.65;4.75;;;;;;;-1.27;87.14;102172.75;1040761;28;20049;-77
2021/04/12 01:34:00;;;;;;;5.80;4.97;;;;;;;-1.27;87.91;102175.31;1040747;28;20049;-77
2021/04/12 01:34:32;;;;;;;7.30;5.30;;;;;;;-1.26;87.53;102179.63;1040052;28;20493;-77
2021/04/12 01:35:48;;;;;;;11.13;4.78;;;;;;;-1.26;87.48;102172.00;1040203;28;20053;-76
2021/04/12 01:36:43;;;;;;;10.85;5.43;;;;;;;-1.27;87.45;102176.19;1036238;28;20440;-77
2021/04/12 01:37:58;;;;;;;5.15;4.65;;;;;;;-1.27;87.47;102173.66;1036676;28;20068;-76
2021/04/12 01:38:54;;;;;;;10.13;4.57;;;;;;;-1.32;87.52;102177.44;1032316;28;20475;-77
2021/04/12 01:39:43;;;;;;;6.55;4.50;;;;;;;-1.28;87.60;102176.06;1040356;28;20156;-76
2021/04/12 01:40:40;;;;;;;6.50;4.90;;;;;;;-1.31;87.37;102175.81;1040392;28;20041;-76
2021/04/12 01:41:11;;;;;;;9.75;4.38;;;;;;;-1.29;87.68;102179.38;1036347;28;20050;-76
2021/04/12 01:42:02;;;;;;;8.05;4.95;;;;;;;-1.28;87.85;102178.63;1036416;28;20054;-76
2021/04/12 01:42:36;;;;;;;8.13;4.63;;;;;;;-1.34;87.31;102178.97;1036414;28;20057;-77
2021/04/12 01:43:10;;;;;;;7.22;5.15;;;;;;;-1.35;87.53;102174.69;1035666;28;20058;-77
2021/04/12 01:44:18;;;;;;;5.90;4.75;;;;;;;-1.29;87.58;102174.31;1036358;28;20442;-77
2021/04/12 01:45:03;;;;;;;8.73;4.47;;;;;;;-1.28;87.73;102181.16;1037866;28;20046;-77
2021/04/12 01:46:05;;;;;;;5.70;4.45;;;;;;;-1.33;86.90;102183.28;1036371;28;20434;-77
2021/04/12 01:46:51;;;;;;;11.75;4.75;;;;;;;-1.37;87.77;102179.59;1040663;28;20568;-76
2021/04/12 01:47:55;;;;;;;4.88;4.25;;;;;;;-1.33;87.01;102176.56;1042891;28;20053;-76
2021/04/12 01:48:35;;;;;;;5.20;4.03;;;;;;;-1.32;87.53;102177.44;1035084;28;20046;-77
2021/04/12 01:49:13;;;;;;;6.38;4.30;;;;;;;-1.34;87.42;102189.13;1032479;28;20050;-77
2021/04/12 01:50:07;;;;;;;7.05;4.75;;;;;;;-1.33;87.26;102181.66;1028337;28;20125;-77
2021/04/12 01:51:00;;;;;;;6.65;4.65;;;;;;;-1.30;87.55;102182.69;1032630;28;20051;-77
2021/04/12 01:52:10;;;;;;;7.63;4.30;;;;;;;-1.34;87.59;102178.97;1036777;28;20054;-76
2021/04/12 01:52:59;;;;;;;5.68;4.75;;;;;;;-1.37;87.57;102183.78;1038887;28;20049;-76
2021/04/12 01:53:51;;;;;;;8.05;4.18;;;;;;;-1.37;87.64;102182.13;1040313;28;20168;-77
2021/04/12 01:54:39;;;;;;;8.00;5.03;;;;;;;-1.37;87.91;102182.13;1036659;28;20054;-77
2021/04/12 01:55:27;;;;;;;6.75;4.68;;;;;;;-1.33;87.54;102185.84;1036416;28;20128;-77
2021/04/12 01:56:20;;;;;;;15.68;5.03;;;;;;;-1.34;88.31;102186.59;1037452;28;20075;-76
2021/04/12 01:57:32;;;;;;;6.82;4.30;;;;;;;-1.36;88.00;102189.00;1033807;28;20055;-77
2021/04/12 01:58:32;;;;;;;7.22;4.32;;;;;;;-1.38;87.71;102187.09;1027889;28;20411;-77
2021/04/12 01:59:28;;;;;;;9.73;5.13;;;;;;;-1.42;88.24;102191.03;1036288;28;20097;-77
2021/04/12 02:00:35;;;;;;;10.65;5.20;;;;;;;-1.48;87.57;102193.03;1039633;28;20049;-77
2021/04/12 02:01:29;;;;;;;7.45;4.63;;;;;;;-1.45;88.16;102195.84;1033417;28;20046;-77
2021/04/12 02:02:42;;;;;;;6.03;4.70;;;;;;;-1.42;88.04;102191.03;1036067;28;20513;-77
2021/04/12 02:03:44;;;;;;;7.10;4.22;;;;;;;-1.41;87.81;102186.84;1019995;29;20059;-77
2021/04/12 02:04:30;;;;;;;8.82;4.53;;;;;;;-1.46;87.34;102188.09;1029705;28;20047;-77
2021/04/12 02:05:07;;;;;;;8.45;4.45;;;;;;;-1.43;87.76;102188.34;1034429;28;20178;-77
2021/04/12 02:05:38;;;;;;;13.40;5.63;;;;;;;-1.44;88.24;102199.25;1032186;28;20307;-77
2021/04/12 02:06:24;;;;;;;7.75;4.82;;;;;;;-1.48;87.79;102190.50;1035401;28;20042;-77
2021/04/12 02:07:27;;;;;;;11.43;4.72;;;;;;;-1.49;87.62;102191.25;1036339;28;20042;-77
2021/04/12 02:08:19;;;;;;;6.72;4.70;;;;;;;-1.49;87.67;102190.38;1026803;28;20053;-77
2021/04/12 02:09:11;;;;;;;8.73;4.72;;;;;;;-1.47;87.57;102199.91;1036287;28;20060;-77
2021/04/12 02:10:07;;;;;;;7.28;4.85;;;;;;;-1.44;88.18;102200.16;1036338;28;20068;-77
2021/04/12 02:10:48;;;;;;;10.48;5.28;;;;;;;-1.55;87.27;102192.38;1032122;28;20064;-77
2021/04/12 02:11:35;;;;;;;5.85;5.03;;;;;;;-1.58;87.67;102197.22;1029220;28;20055;-77
2021/04/12 02:12:31;;;;;;;6.95;4.50;;;;;;;-1.65;87.66;102195.78;1029753;28;20050;-77
2021/04/12 02:13:21;;;;;;;6.07;4.72;;;;;;;-1.58;87.77;102199.75;1037912;28;20121;-77
2021/04/12 02:14:12;;;;;;;6.50;4.75;;;;;;;-1.53;88.12;102196.84;1040235;28;20068;-77
2021/04/12 02:14:59;;;;;;;7.28;4.40;;;;;;;-1.56;87.74;102196.56;1036248;28;20068;-77
2021/04/12 02:15:58;;;;;;;8.98;4.72;;;;;;;-1.55;87.71;102194.94;1036290;28;20050;-77
2021/04/12 02:16:42;;;;;;;8.00;4.63;;;;;;;-1.55;87.85;102207.59;1032266;28;20054;-77
2021/04/12 02:17:34;;;;;;;5.70;4.53;;;;;;;-1.54;87.67;102202.66;1033846;28;20061;-77
2021/04/12 02:18:27;;;;;;;7.05;3.90;;;;;;;-1.55;87.87;102205.06;1036412;28;20509;-77
2021/04/12 02:19:32;;;;;;;8.25;4.28;;;;;;;-1.56;87.75;102193.16;1036384;28;20411;-77
2021/04/12 02:20:29;;;;;;;8.02;5.30;;;;;;;-1.54;87.89;102205.19;1024281;28;20423;-77
2021/04/12 02:21:22;;;;;;;4.75;4.05;;;;;;;-1.52;87.43;102206.22;1040413;28;20453;-77
2021/04/12 02:22:15;;;;;;;7.50;4.50;;;;;;;-1.50;87.81;102209.78;1038085;28;20045;-77
2021/04/12 02:23:01;;;;;;;6.05;4.82;;;;;;;-1.53;87.62;102212.06;1040050;28;20088;-77
2021/04/12 02:23:47;;;;;;;7.28;4.60;;;;;;;-1.50;87.59;102209.78;1037695;28;20049;-77
2021/04/12 02:24:54;;;;;;;7.43;4.45;;;;;;;-1.49;87.73;102213.19;1037907;28;20135;-77
2021/04/12 02:25:34;;;;;;;5.65;3.92;;;;;;;-1.46;87.77;102209.28;1027916;28;20089;-77
2021/04/12 02:26:11;;;;;;;5.65;3.92;;;;;;;-1.44;87.89;102212.84;1026189;28;20051;-77
2021/04/12 02:27:03;;;;;;;5.97;4.60;;;;;;;-1.44;88.12;102210.31;1035442;28;20057;-77
2021/04/12 02:27:52;;;;;;;8.68;4.40;;;;;;;-1.42;88.16;102218.03;1040193;28;20543;-77
2021/04/12 02:28:39;;;;;;;6.55;4.75;;;;;;;-1.45;87.94;102215.25;1040600;28;20452;-77
2021/04/12 02:29:26;;;;;;;5.85;4.40;;;;;;;-1.43;88.03;102209.53;1040193;28;20065;-77
2021/04/12 02:30:08;;;;;;;7.00;4.68;;;;;;;-1.47;87.86;102215.13;1034401;28;20052;-77
2021/04/12 02:30:58;;;;;;;4.82;4.05;;;;;;;-1.43;87.80;102212.06;1034340;28;20128;-77
2021/04/12 02:31:50;;;;;;;7.28;4.93;;;;;;;-1.43;87.88;102214.59;1039140;28;20120;-77
2021/04/12 02:32:49;;;;;;;7.05;4.70;;;;;;;-1.47;88.00;102212.59;1036347;28;20057;-77
2021/04/12 02:33:42;;;;;;;7.35;4.97;;;;;;;-1.51;87.78;102212.19;1039052;28;20045;-77
2021/04/12 02:34:40;;;;;;;6.55;4.47;;;;;;;-1.48;88.26;102217.50;1038817;28;20046;-77
2021/04/12 02:35:17;;;;;;;8.40;5.25;;;;;;;-1.44;88.05;102215.38;1023794;29;20054;-78
2021/04/12 02:36:02;;;;;;;8.73;5.35;;;;;;;-1.42;88.17;102223.09;1024481;28;20051;-77
2021/04/12 02:37:08;;;;;;;7.30;5.22;;;;;;;-1.47;87.85;102214.25;1036150;28;20378;-77
2021/04/12 02:37:44;;;;;;;8.55;5.22;;;;;;;-1.44;88.30;102215.38;1034918;28;20056;-77
2021/04/12 02:38:23;;;;;;;7.95;5.20;;;;;;;-1.46;88.45;102216.91;1036943;28;20061;-77
2021/04/12 02:39:04;;;;;;;9.35;5.25;;;;;;;-1.46;88.30;102219.44;1036221;28;20072;-77
2021/04/12 02:39:48;;;;;;;11.27;6.32;;;;;;;-1.45;88.20;102220.31;1035308;28;20050;-77
2021/04/12 02:40:47;;;;;;;7.40;5.53;;;;;;;-1.42;88.35;102224.03;1032095;28;20069;-77
2021/04/12 02:41:48;;;;;;;8.10;4.90;;;;;;;-1.40;88.39;102216.53;1037656;28;20073;-77
2021/04/12 02:42:35;;;;;;;10.38;5.38;;;;;;;-1.30;89.20;102218.22;1044078;28;20427;-77
2021/04/12 02:43:40;;;;;;;8.35;5.63;;;;;;;-1.31;89.03;102219.81;1042159;28;20045;-77
2021/04/12 02:44:37;;;;;;;6.60;4.75;;;;;;;-1.40;88.42;102225.03;1039838;28;20056;-77
2021/04/12 02:45:20;;;;;;;12.98;5.57;;;;;;;-1.45;88.38;102217.78;1036229;28;20058;-77
2021/04/12 02:46:02;;;;;;;8.13;4.82;;;;;;;-1.44;88.58;102215.38;1033377;28;20053;-77
2021/04/12 02:47:08;;;;;;;6.88;5.43;;;;;;;-1.48;88.50;102198.09;1036100;28;20060;-77
2021/04/12 02:48:06;;;;;;;6.18;4.30;;;;;;;-1.43;88.68;102221.34;1036356;28;20486;-77
2021/04/12 02:48:41;;;;;;;7.50;4.60;;;;;;;-1.47;88.36;102220.19;1036309;28;20042;-78
2021/04/12 02:49:38;;;;;;;10.52;5.50;;;;;;;-1.44;89.06;102217.03;1036312;28;20140;-77
2021/04/12 02:50:28;;;;;;;11.90;5.10;;;;;;;-1.33;89.01;102223.91;1035929;28;20052;-77
2021/04/12 02:51:23;;;;;;;6.00;4.65;;;;;;;-1.39;88.54;102220.84;1036188;28;20050;-77
2021/04/12 02:52:08;;;;;;;9.32;5.25;;;;;;;-1.44;88.90;102225.53;1033834;28;20057;-77
2021/04/12 02:52:58;;;;;;;6.50;5.82;;;;;;;-1.48;88.76;102230.19;1031952;28;20116;-77
2021/04/12 02:53:49;;;;;;;8.02;5.63;;;;;;;-1.47;88.71;102229.47;1032718;28;20050;-77
2021/04/12 02:54:47;;;;;;;7.88;5.45;;;;;;;-1.58;88.11;102228.56;1036181;28;20069;-77
2021/04/12 02:55:45;;;;;;;10.57;4.82;;;;;;;-1.63;88.58;102232.34;1036186;28;20058;-77
2021/04/12 02:56:30;;;;;;;8.20;4.55;;;;;;;-1.67;88.52;102236.25;1026680;28;20047;-77
2021/04/12 02:57:43;;;;;;;8.65;5.07;;;;;;;-1.61;89.06;102230.81;1028077;28;20047;-77
2021/04/12 02:58:48;;;;;;;6.88;5.18;;;;;;;-1.53;89.19;102239.06;1035509;28;20521;-77
2021/04/12 02:59:28;;;;;;;5.88;3.95;;;;;;;-1.20;89.85;102243.59;1035873;28;20432;-77
2021/04/12 03:00:35;;;;;;;7.25;4.80;;;;;;;-1.17;89.38;102237.13;1036206;28;20053;-77
2021/04/12 03:01:34;;;;;;;6.75;5.38;;;;;;;-1.17;89.28;102239.66;1036162;28;20080;-77
2021/04/12 03:02:42;;;;;;;9.07;5.05;;;;;;;-1.11;89.31;102239.28;1036179;28;20057;-77
2021/04/12 03:03:52;;;;;;;11.57;6.05;;;;;;;-1.07;89.43;102236.25;1031971;28;20054;-77
2021/04/12 03:04:28;;;;;;;6.97;4.85;;;;;;;-1.03;89.28;102240.81;1038304;28;20047;-77
2021/04/12 03:05:38;;;;;;;8.88;5.47;;;;;;;-0.94;89.63;102239.06;1040183;28;20042;-77
2021/04/12 03:06:12;;;;;;;11.00;4.95;;;;;;;-0.92;89.42;102239.16;1032105;28;20054;-77
2021/04/12 03:07:13;;;;;;;13.13;5.82;;;;;;;-0.90;89.39;102238.56;1033742;28;20047;-77
2021/04/12 03:07:59;;;;;;;7.72;5.03;;;;;;;-0.82;89.18;102239.19;1032583;28;20486;-77
2021/04/12 03:08:31;;;;;;;9.77;5.88;;;;;;;-0.86;89.20;102243.09;1036048;28;20576;-77
2021/04/12 03:09:20;;;;;;;9.02;5.15;;;;;;;-0.83;89.09;102237.41;1036027;28;20054;-77
2021/04/12 03:10:27;;;;;;;8.55;5.82;;;;;;;-0.91;88.94;102241.88;1036052;28;20069;-77
2021/04/12 03:11:35;;;;;;;6.63;4.80;;;;;;;-0.83;89.18;102240.84;1040013;28;20077;-77
2021/04/12 03:12:28;;;;;;;9.63;5.25;;;;;;;-0.77;89.26;102230.28;1039969;28;20049;-77
2021/04/12 03:13:31;;;;;;;9.50;5.50;;;;;;;-0.71;89.59;102243.50;1036140;28;20058;-77
2021/04/12 03:14:25;;;;;;;9.68;5.13;;;;;;;-0.65;89.71;102244.00;1035184;28;20057;-78
2021/04/12 03:15:08;;;;;;;5.82;5.22;;;;;;;-0.58;89.67;102237.75;1031896;28;20049;-77
2021/04/12 03:15:46;;;;;;;8.43;5.80;;;;;;;-0.51;89.25;102234.06;1036477;28;20068;-77
2021/04/12 03:16:38;;;;;;;11.98;6.05;;;;;;;-0.57;89.07;102240.47;1040114;28;20045;-77
2021/04/12 03:18:00;;;;;;;9.07;5.22;;;;;;;-0.43;89.17;102233.94;1040077;28;20511;-78
2021/04/12 03:19:28;;;;;;;5.45;3.50;;;;;;;-0.36;88.86;102243.84;1021157;29;20055;-77
2021/04/12 03:20:02;;;;;;;8.88;4.03;;;;;;;-0.30;88.96;102244.31;1027628;28;20130;-77
2021/04/12 03:20:56;;;;;;;10.02;4.63;;;;;;;-0.30;88.96;102240.91;1027766;28;20098;-78
2021/04/12 03:21:42;;;;;;;6.35;4.18;;;;;;;-0.23;89.23;102239.75;1023760;29;20070;-77
2021/04/12 03:22:27;;;;;;;8.77;5.72;;;;;;;-0.24;89.51;102246.47;1023806;29;20051;-78
2021/04/12 03:23:21;;;;;;;8.30;5.00;;;;;;;-0.17;89.64;102235.13;1019812;29;20063;-78
2021/04/12 03:24:13;;;;;;;8.77;4.50;;;;;;;-0.12;89.86;102241.50;1023919;29;20058;-77
2021/04/12 03:25:18;;;;;;;6.75;4.60;;;;;;;-0.15;89.77;102237.06;1021906;29;20109;-78
2021/04/12 03:26:08;;;;;;;9.77;3.90;;;;;;;-0.20;89.91;102240.88;1035069;28;20153;-77
2021/04/12 03:26:51;;;;;;;6.80;4.47;;;;;;;-0.16;89.96;102236.94;1038691;28;20053;-77
2021/04/12 03:27:42;;;;;;;11.35;5.97;;;;;;;-0.20;90.03;102233.25;1036557;28;20101;-77
2021/04/12 03:29:10;;;;;;;7.30;4.95;;;;;;;-0.15;89.87;102241.25;1041291;28;20049;-78
2021/04/12 03:29:50;;;;;;;5.72;4.30;;;;;;;-0.18;89.87;102246.09;1023748;28;20051;-77
2021/04/12 03:30:41;;;;;;;7.07;4.97;;;;;;;-0.25;89.67;102238.75;1027686;28;20071;-77
2021/04/12 03:31:33;;;;;;;6.30;5.43;;;;;;;-0.19;90.17;102239.22;1019725;29;20048;-77
2021/04/12 03:33:05;;;;;;;7.32;6.05;;;;;;;-0.25;89.89;102229.44;1023793;29;20055;-77
2021/04/12 03:34:01;;;;;;;7.55;5.95;;;;;;;-0.27;90.16;102236.97;1023650;29;20126;-77
2021/04/12 03:35:03;;;;;;;8.32;6.38;;;;;;;-0.22;90.32;102241.53;1023559;28;20107;-77
2021/04/12 03:35:43;;;;;;;9.00;5.72;;;;;;;-0.21;90.19;102245.84;1018344;29;20055;-77
2021/04/12 03:36:32;;;;;;;9.57;6.75;;;;;;;-0.25;90.33;102233.66;1017209;29;20055;-77
2021/04/12 03:37:56;;;;;;;9.77;6.97;;;;;;;-0.20;90.44;102240.00;1015808;29;20135;-77
2021/04/12 03:38:36;;;;;;;9.35;6.47;;;;;;;-0.27;90.07;102238.63;1004004;29;20081;-77
2021/04/12 03:39:15;;;;;;;;;;;;;;;-0.28;90.10;102239.41;1009936;29;20415;-77
2021/04/12 03:39:53;;;;;;;8.75;6.22;;;;;;;-0.32;90.37;102237.34;1016714;28;19964;-77
2021/04/12 03:40:31;;;;;;;9.98;7.03;;;;;;;-0.34;90.29;102243.94;1031599;28;20050;-77
2021/04/12 03:41:33;;;;;;;10.00;6.40;;;;;;;-0.37;90.19;102231.91;1035165;28;20054;-77
2021/04/12 03:42:04;;;;;;;7.25;6.22;;;;;;;-0.32;90.69;102244.97;1036012;28;20116;-77
2021/04/12 03:42:44;;;;;;;8.77;6.63;;;;;;;-0.31;90.53;102246.75;1036071;28;20057;-77
2021/04/12 03:43:31;;;;;;;9.90;6.20;;;;;;;-0.31;90.60;102242.56;1035825;28;20054;-77
2021/04/12 03:44:36;;;;;;;12.57;7.20;;;;;;;-0.34;90.41;102257.59;1036047;28;20050;-77
2021/04/12 03:45:24;;;;;;;11.68;7.30;;;;;;;-0.30;90.54;102256.16;1031797;28;20054;-77
2021/04/12 03:46:18;;;;;;;11.73;7.18;;;;;;;-0.35;90.70;102252.34;1031996;28;20153;-77
2021/04/12 03:47:08;;;;;;;10.82;7.68;;;;;;;-0.41;90.67;102247.66;1021014;29;20044;-77
2021/04/12 03:48:01;;;;;;;11.63;7.78;;;;;;;-0.44;90.53;102251.63;1027695;28;20047;-77
2021/04/12 03:49:02;;;;;;;8.88;7.05;;;;;;;-0.46;90.61;102253.13;1033409;28;20105;-77
2021/04/12 03:49:51;;;;;;;10.27;6.80;;;;;;;-0.46;90.68;102255.66;1028646;28;20058;-77
2021/04/12 03:50:59;;;;;;;10.77;7.03;;;;;;;-0.44;90.66;102249.97;1026280;28;20051;-77
2021/04/12 03:51:49;;;;;;;7.97;6.65;;;;;;;-0.46;90.79;102246.38;1027389;28;20061;-77
2021/04/12 03:52:38;;;;;;;9.93;7.47;;;;;;;-0.51;90.66;102254.41;1027248;28;20047;-77
2021/04/12 03:53:33;;;;;;;11.32;6.88;;;;;;;-0.54;90.70;102257.59;1024940;28;20500;-77
2021/04/12 03:54:22;;;;;;;11.18;6.72;;;;;;;-0.55;90.82;102261.78;1029539;28;20106;-77
2021/04/12 03:55:24;;;;;;;9.20;7.15;;;;;;;-0.59;90.62;102257.22;1031902;28;20046;-77
2021/04/12 03:56:52;;;;;;;11.45;6.85;;;;;;;-0.57;91.00;102262.41;1031784;28;20054;-77
2021/04/12 03:57:47;;;;;;;11.65;6.97;;;;;;;-0.55;91.26;102265.97;1020108;29;20047;-77
2021/04/12 03:58:43;;;;;;;8.18;6.35;;;;;;;-0.59;91.12;102261.41;1026092;28;20511;-76